Startpagina
METAR-TAF:

METAR-TAF

Vliegvelden :

Luchthaven van Aden

Aden, Jemen

breedte: 12-40N, lengte: 045-02E, hoogte: 3 m

Actueel weer

Dit bericht is 2 uur en het 7 minuten geleden gemaakt, om 07:00 UTC
Wind 17 kt uit het westzuidwesten
Temperatuur 32°C
Vochtigheid 63%
Druk 1002 hPa
Zicht: 3000 m
Weinig wolken op 2000 ft
Verspreide wolken op 10000 ft
verspreid stof,

METAR: OYAA 250700Z 25017KT DU 3000 FEW020 SCT100 32/24 Q1002 NOSIG

Tijdstip: 12:07 (09:07 UTC)


TAF: ontbreekt

Waarnemingen en weersverwachtingen van meer dan 4000 vliegvelden (METAR en TAF).

De beschikbare stations zijn de gele en rode punten op de kaart.

Ga met uw muis naar het station om de naam te zien.

Klik dan om waarnemingen en weersverwachtingen te zien.

kaart wijzigen: klik op de groene knoppen met een zwart kruis om in te zoomen, op de groene knop met een streepje om uit te zoomen of op de groene pijlen voor aangrenzende kaarten.


METAR-TAF: